FQNC

Nacala Airport

Nacala, Mozambique
METAR FQNC 241300Z 14009KT 9999 SCT020 BKN100 28/23 Q1015
Observed Flight Rules
May-24 @ 13:00 UTC (52 minutes ago) Visual Flight Rules
Wind Visibility Clouds
140° at 9 knots 10,000+ meters
  • Scattered at 2,000' AGL
  • Broken at 10,000' AGL
Temperatures Readings
Current 28°C / 82°F
Dewpoint 23°C / 73°F
Humidity 74%
Altimeter 29.97" Hg
Pressure 1015 hPa
Elevation 125
METAR FQNC 241300Z 14009KT 9999 SCT020 BKN100 28/23 Q1015
Observed Flight Rules
May-24 @ 13:00 UTC
(52 minutes ago)
VFR
Wind Visibility
140° at 9 knots 10,000+ meters
Clouds
  • Scattered at 2,000' AGL
  • Broken at 10,000' AGL
Temperature Dewpoint
28°C / 82°F 23°C / 73°F
Humidity Altimeter Pressure
74% 29.97" Hg 1015 hPa